sensor_id;sensor_type;location;lat;lon;timestamp;temperature;humidity
66522;SHT31;53349;53.538;8.584;2023-07-20T00:00:00;16.77;75.63
66522;SHT31;53349;53.538;8.584;2023-07-20T00:02:25;16.75;75.92
66522;SHT31;53349;53.538;8.584;2023-07-20T00:04:53;16.67;76.30
66522;SHT31;53349;53.538;8.584;2023-07-20T00:07:19;16.63;76.22
66522;SHT31;53349;53.538;8.584;2023-07-20T00:09:46;16.63;76.52
66522;SHT31;53349;53.538;8.584;2023-07-20T00:12:11;16.62;77.03
66522;SHT31;53349;53.538;8.584;2023-07-20T00:14:38;16.55;76.97
66522;SHT31;53349;53.538;8.584;2023-07-20T00:17:03;16.55;77.17
66522;SHT31;53349;53.538;8.584;2023-07-20T00:19:30;16.52;77.31
66522;SHT31;53349;53.538;8.584;2023-07-20T00:21:57;16.49;77.52
66522;SHT31;53349;53.538;8.584;2023-07-20T00:24:23;16.52;77.47
66522;SHT31;53349;53.538;8.584;2023-07-20T00:26:49;16.53;77.76
66522;SHT31;53349;53.538;8.584;2023-07-20T00:29:15;16.53;77.97
66522;SHT31;53349;53.538;8.584;2023-07-20T00:31:40;16.48;78.19
66522;SHT31;53349;53.538;8.584;2023-07-20T00:34:07;16.42;78.49
66522;SHT31;53349;53.538;8.584;2023-07-20T00:36:32;16.42;78.93
66522;SHT31;53349;53.538;8.584;2023-07-20T00:39:02;16.35;79.28
66522;SHT31;53349;53.538;8.584;2023-07-20T00:41:28;16.28;79.51
66522;SHT31;53349;53.538;8.584;2023-07-20T00:43:53;16.26;79.80
66522;SHT31;53349;53.538;8.584;2023-07-20T00:46:21;16.24;80.27
66522;SHT31;53349;53.538;8.584;2023-07-20T00:48:48;16.18;80.19
66522;SHT31;53349;53.538;8.584;2023-07-20T00:51:13;16.17;80.23
66522;SHT31;53349;53.538;8.584;2023-07-20T00:53:41;16.12;80.33
66522;SHT31;53349;53.538;8.584;2023-07-20T00:56:06;16.11;80.57
66522;SHT31;53349;53.538;8.584;2023-07-20T00:58:33;16.09;80.57
66522;SHT31;53349;53.538;8.584;2023-07-20T01:00:58;16.12;80.55
66522;SHT31;53349;53.538;8.584;2023-07-20T01:03:24;16.12;80.55
66522;SHT31;53349;53.538;8.584;2023-07-20T01:09:08;16.11;80.32
66522;SHT31;53349;53.538;8.584;2023-07-20T01:11:57;16.12;80.56
66522;SHT31;53349;53.538;8.584;2023-07-20T01:14:27;16.14;80.43
66522;SHT31;53349;53.538;8.584;2023-07-20T01:16:57;16.15;80.63
66522;SHT31;53349;53.538;8.584;2023-07-20T01:19:23;16.18;80.66
66522;SHT31;53349;53.538;8.584;2023-07-20T01:22:09;16.18;80.63
66522;SHT31;53349;53.538;8.584;2023-07-20T01:28:20;16.25;80.44
66522;SHT31;53349;53.538;8.584;2023-07-20T01:33:55;16.22;79.79
66522;SHT31;53349;53.538;8.584;2023-07-20T01:36:23;16.25;79.73
66522;SHT31;53349;53.538;8.584;2023-07-20T01:38:51;16.26;79.59
66522;SHT31;53349;53.538;8.584;2023-07-20T01:41:17;16.25;79.49
66522;SHT31;53349;53.538;8.584;2023-07-20T01:43:44;16.28;79.66
66522;SHT31;53349;53.538;8.584;2023-07-20T01:46:10;16.30;79.76
66522;SHT31;53349;53.538;8.584;2023-07-20T01:48:36;16.30;79.70
66522;SHT31;53349;53.538;8.584;2023-07-20T01:51:01;16.32;79.65
66522;SHT31;53349;53.538;8.584;2023-07-20T01:53:28;16.32;79.17
66522;SHT31;53349;53.538;8.584;2023-07-20T01:55:53;16.32;78.62
66522;SHT31;53349;53.538;8.584;2023-07-20T01:58:20;16.29;77.78
66522;SHT31;53349;53.538;8.584;2023-07-20T02:00:46;16.28;77.57
66522;SHT31;53349;53.538;8.584;2023-07-20T02:03:11;16.28;77.60
66522;SHT31;53349;53.538;8.584;2023-07-20T02:05:42;16.28;77.02
66522;SHT31;53349;53.538;8.584;2023-07-20T02:08:08;16.24;76.52
66522;SHT31;53349;53.538;8.584;2023-07-20T02:10:33;16.25;76.85
66522;SHT31;53349;53.538;8.584;2023-07-20T02:12:59;16.24;76.67
66522;SHT31;53349;53.538;8.584;2023-07-20T02:15:24;16.24;76.35
66522;SHT31;53349;53.538;8.584;2023-07-20T02:17:50;16.25;76.24
66522;SHT31;53349;53.538;8.584;2023-07-20T02:20:15;16.22;75.70
66522;SHT31;53349;53.538;8.584;2023-07-20T02:22:40;16.22;75.88
66522;SHT31;53349;53.538;8.584;2023-07-20T02:25:06;16.22;75.54
66522;SHT31;53349;53.538;8.584;2023-07-20T02:27:32;16.21;75.89
66522;SHT31;53349;53.538;8.584;2023-07-20T02:29:58;16.22;75.37
66522;SHT31;53349;53.538;8.584;2023-07-20T02:32:23;16.22;75.41
66522;SHT31;53349;53.538;8.584;2023-07-20T02:34:49;16.25;75.42
66522;SHT31;53349;53.538;8.584;2023-07-20T02:37:14;16.21;75.27
66522;SHT31;53349;53.538;8.584;2023-07-20T02:39:40;16.22;75.38
66522;SHT31;53349;53.538;8.584;2023-07-20T02:42:05;16.18;74.93
66522;SHT31;53349;53.538;8.584;2023-07-20T02:44:31;16.21;75.21
66522;SHT31;53349;53.538;8.584;2023-07-20T02:46:56;16.25;75.06
66522;SHT31;53349;53.538;8.584;2023-07-20T02:49:21;16.22;75.00
66522;SHT31;53349;53.538;8.584;2023-07-20T02:51:48;16.21;74.99
66522;SHT31;53349;53.538;8.584;2023-07-20T02:54:13;16.21;75.03
66522;SHT31;53349;53.538;8.584;2023-07-20T02:56:39;16.21;74.99
66522;SHT31;53349;53.538;8.584;2023-07-20T02:59:04;16.17;74.98
66522;SHT31;53349;53.538;8.584;2023-07-20T03:01:29;16.17;74.98
66522;SHT31;53349;53.538;8.584;2023-07-20T03:03:55;16.12;74.81
66522;SHT31;53349;53.538;8.584;2023-07-20T03:06:21;16.14;74.85
66522;SHT31;53349;53.538;8.584;2023-07-20T03:08:47;16.07;74.59
66522;SHT31;53349;53.538;8.584;2023-07-20T03:11:16;16.05;73.38
66522;SHT31;53349;53.538;8.584;2023-07-20T03:13:42;16.08;73.72
66522;SHT31;53349;53.538;8.584;2023-07-20T03:16:11;16.05;72.48
66522;SHT31;53349;53.538;8.584;2023-07-20T03:18:39;16.07;73.35
66522;SHT31;53349;53.538;8.584;2023-07-20T03:21:06;16.07;72.57
66522;SHT31;53349;53.538;8.584;2023-07-20T03:23:31;16.07;72.89
66522;SHT31;53349;53.538;8.584;2023-07-20T03:25:57;16.05;72.86
66522;SHT31;53349;53.538;8.584;2023-07-20T03:28:25;16.09;72.84
66522;SHT31;53349;53.538;8.584;2023-07-20T03:30:57;16.09;72.53
66522;SHT31;53349;53.538;8.584;2023-07-20T03:33:25;16.08;72.59
66522;SHT31;53349;53.538;8.584;2023-07-20T03:35:51;16.12;72.44
66522;SHT31;53349;53.538;8.584;2023-07-20T03:38:17;16.14;72.54
66522;SHT31;53349;53.538;8.584;2023-07-20T03:43:15;16.15;72.55
66522;SHT31;53349;53.538;8.584;2023-07-20T03:45:41;16.17;72.83
66522;SHT31;53349;53.538;8.584;2023-07-20T03:48:06;16.18;72.86
66522;SHT31;53349;53.538;8.584;2023-07-20T03:50:32;16.22;72.94
66522;SHT31;53349;53.538;8.584;2023-07-20T03:52:57;16.19;72.40
66522;SHT31;53349;53.538;8.584;2023-07-20T03:55:25;16.24;72.24
66522;SHT31;53349;53.538;8.584;2023-07-20T03:57:50;16.22;72.66
66522;SHT31;53349;53.538;8.584;2023-07-20T04:00:17;16.24;72.71
66522;SHT31;53349;53.538;8.584;2023-07-20T04:02:43;16.24;73.02
66522;SHT31;53349;53.538;8.584;2023-07-20T04:05:10;16.25;73.26
66522;SHT31;53349;53.538;8.584;2023-07-20T04:07:36;16.29;73.22
66522;SHT31;53349;53.538;8.584;2023-07-20T04:10:01;16.29;72.76
66522;SHT31;53349;53.538;8.584;2023-07-20T04:12:26;16.41;72.51
66522;SHT31;53349;53.538;8.584;2023-07-20T04:14:52;16.52;72.69
66522;SHT31;53349;53.538;8.584;2023-07-20T04:17:18;16.65;72.61
66522;SHT31;53349;53.538;8.584;2023-07-20T04:19:45;16.84;72.17
66522;SHT31;53349;53.538;8.584;2023-07-20T04:22:10;17.11;71.58
66522;SHT31;53349;53.538;8.584;2023-07-20T04:24:35;17.37;70.77
66522;SHT31;53349;53.538;8.584;2023-07-20T04:27:02;17.54;70.25
66522;SHT31;53349;53.538;8.584;2023-07-20T04:29:28;17.67;70.25
66522;SHT31;53349;53.538;8.584;2023-07-20T04:31:54;17.49;71.11
66522;SHT31;53349;53.538;8.584;2023-07-20T04:34:19;17.18;73.58
66522;SHT31;53349;53.538;8.584;2023-07-20T04:36:44;16.88;75.36
66522;SHT31;53349;53.538;8.584;2023-07-20T04:39:24;16.60;77.31
66522;SHT31;53349;53.538;8.584;2023-07-20T04:41:50;16.36;77.43
66522;SHT31;53349;53.538;8.584;2023-07-20T04:44:17;16.22;78.29
66522;SHT31;53349;53.538;8.584;2023-07-20T04:46:42;16.15;78.60
66522;SHT31;53349;53.538;8.584;2023-07-20T04:49:08;16.07;78.62
66522;SHT31;53349;53.538;8.584;2023-07-20T04:51:33;16.02;78.59
66522;SHT31;53349;53.538;8.584;2023-07-20T04:53:59;16.00;79.03
66522;SHT31;53349;53.538;8.584;2023-07-20T04:56:24;16.01;79.33
66522;SHT31;53349;53.538;8.584;2023-07-20T04:58:51;16.02;79.12
66522;SHT31;53349;53.538;8.584;2023-07-20T05:01:16;16.04;79.08
66522;SHT31;53349;53.538;8.584;2023-07-20T05:03:41;16.09;79.04
66522;SHT31;53349;53.538;8.584;2023-07-20T05:06:07;16.14;78.67
66522;SHT31;53349;53.538;8.584;2023-07-20T05:08:33;16.14;78.22
66522;SHT31;53349;53.538;8.584;2023-07-20T05:10:59;16.12;78.24
66522;SHT31;53349;53.538;8.584;2023-07-20T05:13:25;16.09;77.95
66522;SHT31;53349;53.538;8.584;2023-07-20T05:15:53;16.11;78.34
66522;SHT31;53349;53.538;8.584;2023-07-20T05:18:19;16.08;78.14
66522;SHT31;53349;53.538;8.584;2023-07-20T05:20:48;16.07;78.05
66522;SHT31;53349;53.538;8.584;2023-07-20T05:23:17;16.05;77.75
66522;SHT31;53349;53.538;8.584;2023-07-20T05:25:42;16.05;77.65
66522;SHT31;53349;53.538;8.584;2023-07-20T05:28:09;16.09;77.86
66522;SHT31;53349;53.538;8.584;2023-07-20T05:30:36;16.11;77.75
66522;SHT31;53349;53.538;8.584;2023-07-20T05:33:01;16.17;77.54
66522;SHT31;53349;53.538;8.584;2023-07-20T05:35:27;16.44;77.14
66522;SHT31;53349;53.538;8.584;2023-07-20T05:37:52;16.60;75.70
66522;SHT31;53349;53.538;8.584;2023-07-20T05:40:17;16.69;75.82
66522;SHT31;53349;53.538;8.584;2023-07-20T05:42:43;16.70;75.67
66522;SHT31;53349;53.538;8.584;2023-07-20T05:45:09;16.73;75.18
66522;SHT31;53349;53.538;8.584;2023-07-20T05:47:37;16.83;74.94
66522;SHT31;53349;53.538;8.584;2023-07-20T05:50:02;17.16;74.92
66522;SHT31;53349;53.538;8.584;2023-07-20T05:52:29;17.37;73.81
66522;SHT31;53349;53.538;8.584;2023-07-20T05:54:54;17.34;73.09
66522;SHT31;53349;53.538;8.584;2023-07-20T05:57:20;17.45;73.31
66522;SHT31;53349;53.538;8.584;2023-07-20T05:59:47;17.48;73.06
66522;SHT31;53349;53.538;8.584;2023-07-20T06:02:18;17.55;72.57
66522;SHT31;53349;53.538;8.584;2023-07-20T06:04:45;17.95;72.14
66522;SHT31;53349;53.538;8.584;2023-07-20T06:07:10;18.61;70.88
66522;SHT31;53349;53.538;8.584;2023-07-20T06:09:35;19.18;69.13
66522;SHT31;53349;53.538;8.584;2023-07-20T06:12:01;19.71;67.65
66522;SHT31;53349;53.538;8.584;2023-07-20T06:14:27;20.08;65.93
66522;SHT31;53349;53.538;8.584;2023-07-20T06:16:52;20.47;65.01
66522;SHT31;53349;53.538;8.584;2023-07-20T06:19:17;20.90;64.40
66522;SHT31;53349;53.538;8.584;2023-07-20T06:21:43;20.68;64.43
66522;SHT31;53349;53.538;8.584;2023-07-20T06:24:08;20.29;64.88
66522;SHT31;53349;53.538;8.584;2023-07-20T06:26:33;19.78;65.44
66522;SHT31;53349;53.538;8.584;2023-07-20T06:28:59;19.62;65.86
66522;SHT31;53349;53.538;8.584;2023-07-20T06:31:24;20.16;64.85
66522;SHT31;53349;53.538;8.584;2023-07-20T06:33:50;20.38;64.10
66522;SHT31;53349;53.538;8.584;2023-07-20T06:36:17;20.38;64.06
66522;SHT31;53349;53.538;8.584;2023-07-20T06:38:43;20.27;64.55
66522;SHT31;53349;53.538;8.584;2023-07-20T06:41:09;19.93;64.38
66522;SHT31;53349;53.538;8.584;2023-07-20T06:43:35;19.71;64.51
66522;SHT31;53349;53.538;8.584;2023-07-20T06:46:00;20.01;64.81
66522;SHT31;53349;53.538;8.584;2023-07-20T06:48:27;20.44;63.96
66522;SHT31;53349;53.538;8.584;2023-07-20T06:50:54;21.02;63.06
66522;SHT31;53349;53.538;8.584;2023-07-20T06:53:19;21.62;61.64
66522;SHT31;53349;53.538;8.584;2023-07-20T06:55:44;22.12;60.59
66522;SHT31;53349;53.538;8.584;2023-07-20T06:58:12;22.50;58.43
66522;SHT31;53349;53.538;8.584;2023-07-20T07:00:38;22.93;57.13
66522;SHT31;53349;53.538;8.584;2023-07-20T07:03:03;22.96;56.89
66522;SHT31;53349;53.538;8.584;2023-07-20T07:05:28;23.01;56.91
66522;SHT31;53349;53.538;8.584;2023-07-20T07:07:55;23.47;55.52
66522;SHT31;53349;53.538;8.584;2023-07-20T07:10:20;23.35;55.10
66522;SHT31;53349;53.538;8.584;2023-07-20T07:12:45;22.78;56.61
66522;SHT31;53349;53.538;8.584;2023-07-20T07:15:11;22.55;57.29
66522;SHT31;53349;53.538;8.584;2023-07-20T07:17:37;22.64;57.10
66522;SHT31;53349;53.538;8.584;2023-07-20T07:20:03;22.69;55.56
66522;SHT31;53349;53.538;8.584;2023-07-20T07:22:29;22.49;55.44
66522;SHT31;53349;53.538;8.584;2023-07-20T07:24:54;22.90;54.08
66522;SHT31;53349;53.538;8.584;2023-07-20T07:27:20;23.14;52.10
66522;SHT31;53349;53.538;8.584;2023-07-20T07:29:46;22.90;52.87
66522;SHT31;53349;53.538;8.584;2023-07-20T07:32:11;22.77;53.07
66522;SHT31;53349;53.538;8.584;2023-07-20T07:34:37;22.87;53.01
66522;SHT31;53349;53.538;8.584;2023-07-20T07:37:03;22.81;53.55
66522;SHT31;53349;53.538;8.584;2023-07-20T07:39:29;23.04;52.13
66522;SHT31;53349;53.538;8.584;2023-07-20T07:41:54;23.00;52.07
66522;SHT31;53349;53.538;8.584;2023-07-20T07:44:21;22.42;57.55
66522;SHT31;53349;53.538;8.584;2023-07-20T07:46:46;21.22;62.40
66522;SHT31;53349;53.538;8.584;2023-07-20T07:49:13;20.22;65.65
66522;SHT31;53349;53.538;8.584;2023-07-20T07:51:43;19.53;67.60
66522;SHT31;53349;53.538;8.584;2023-07-20T07:54:08;19.20;68.41
66522;SHT31;53349;53.538;8.584;2023-07-20T07:56:34;19.07;68.22
66522;SHT31;53349;53.538;8.584;2023-07-20T07:58:59;19.08;69.25
66522;SHT31;53349;53.538;8.584;2023-07-20T08:01:24;18.94;69.40
66522;SHT31;53349;53.538;8.584;2023-07-20T08:03:50;18.99;69.59
66522;SHT31;53349;53.538;8.584;2023-07-20T08:06:15;19.09;69.92
66522;SHT31;53349;53.538;8.584;2023-07-20T08:08:42;19.36;69.82
66522;SHT31;53349;53.538;8.584;2023-07-20T08:11:08;19.55;68.55
66522;SHT31;53349;53.538;8.584;2023-07-20T08:13:34;19.74;68.05
66522;SHT31;53349;53.538;8.584;2023-07-20T08:16:00;19.87;66.40
66522;SHT31;53349;53.538;8.584;2023-07-20T08:18:26;19.98;66.56
66522;SHT31;53349;53.538;8.584;2023-07-20T08:20:52;19.88;65.95
66522;SHT31;53349;53.538;8.584;2023-07-20T08:23:17;20.00;65.46
66522;SHT31;53349;53.538;8.584;2023-07-20T08:25:43;20.18;64.96
66522;SHT31;53349;53.538;8.584;2023-07-20T08:28:08;20.44;63.92
66522;SHT31;53349;53.538;8.584;2023-07-20T08:33:06;20.95;61.92
66522;SHT31;53349;53.538;8.584;2023-07-20T08:35:31;21.16;61.15
66522;SHT31;53349;53.538;8.584;2023-07-20T08:37:57;21.36;59.99
66522;SHT31;53349;53.538;8.584;2023-07-20T08:40:22;21.67;58.24
66522;SHT31;53349;53.538;8.584;2023-07-20T08:42:48;21.89;58.19
66522;SHT31;53349;53.538;8.584;2023-07-20T08:45:16;22.19;57.42
66522;SHT31;53349;53.538;8.584;2023-07-20T08:47:46;22.46;56.23
66522;SHT31;53349;53.538;8.584;2023-07-20T08:50:12;22.76;55.00
66522;SHT31;53349;53.538;8.584;2023-07-20T08:52:38;22.60;55.14
66522;SHT31;53349;53.538;8.584;2023-07-20T08:55:05;22.93;54.01
66522;SHT31;53349;53.538;8.584;2023-07-20T08:57:33;23.29;53.42
66522;SHT31;53349;53.538;8.584;2023-07-20T09:00:00;23.25;51.68
66522;SHT31;53349;53.538;8.584;2023-07-20T09:02:27;23.39;53.25
66522;SHT31;53349;53.538;8.584;2023-07-20T09:04:52;23.61;52.02
66522;SHT31;53349;53.538;8.584;2023-07-20T09:07:20;23.79;50.46
66522;SHT31;53349;53.538;8.584;2023-07-20T09:09:47;24.02;50.29
66522;SHT31;53349;53.538;8.584;2023-07-20T09:12:14;24.06;48.07
66522;SHT31;53349;53.538;8.584;2023-07-20T09:14:42;23.73;49.23
66522;SHT31;53349;53.538;8.584;2023-07-20T09:17:13;23.49;50.98
66522;SHT31;53349;53.538;8.584;2023-07-20T09:19:39;23.22;51.42
66522;SHT31;53349;53.538;8.584;2023-07-20T09:22:05;23.01;52.50
66522;SHT31;53349;53.538;8.584;2023-07-20T09:24:32;22.70;53.45
66522;SHT31;53349;53.538;8.584;2023-07-20T09:26:57;22.70;54.01
66522;SHT31;53349;53.538;8.584;2023-07-20T09:29:27;22.91;52.68
66522;SHT31;53349;53.538;8.584;2023-07-20T09:32:03;23.04;52.32
66522;SHT31;53349;53.538;8.584;2023-07-20T09:34:31;22.98;51.42
66522;SHT31;53349;53.538;8.584;2023-07-20T09:36:58;22.90;51.18
66522;SHT31;53349;53.538;8.584;2023-07-20T09:39:24;22.88;53.23
66522;SHT31;53349;53.538;8.584;2023-07-20T09:41:51;22.93;51.57
66522;SHT31;53349;53.538;8.584;2023-07-20T09:44:17;23.25;50.57
66522;SHT31;53349;53.538;8.584;2023-07-20T09:46:45;23.41;49.97
66522;SHT31;53349;53.538;8.584;2023-07-20T09:49:11;23.55;49.83
66522;SHT31;53349;53.538;8.584;2023-07-20T09:51:40;23.55;49.44
66522;SHT31;53349;53.538;8.584;2023-07-20T09:54:06;23.66;49.53
66522;SHT31;53349;53.538;8.584;2023-07-20T09:56:32;23.80;48.24
66522;SHT31;53349;53.538;8.584;2023-07-20T09:59:00;23.61;48.17
66522;SHT31;53349;53.538;8.584;2023-07-20T10:01:30;23.76;47.90
66522;SHT31;53349;53.538;8.584;2023-07-20T10:03:59;23.86;46.82
66522;SHT31;53349;53.538;8.584;2023-07-20T10:06:32;23.75;47.33
66522;SHT31;53349;53.538;8.584;2023-07-20T10:09:02;23.76;47.67
66522;SHT31;53349;53.538;8.584;2023-07-20T10:11:30;23.83;47.54
66522;SHT31;53349;53.538;8.584;2023-07-20T10:13:59;24.03;47.49
66522;SHT31;53349;53.538;8.584;2023-07-20T10:16:36;23.93;47.49
66522;SHT31;53349;53.538;8.584;2023-07-20T10:22:03;24.06;48.03
66522;SHT31;53349;53.538;8.584;2023-07-20T10:24:34;23.86;48.42
66522;SHT31;53349;53.538;8.584;2023-07-20T10:27:02;23.95;48.61
66522;SHT31;53349;53.538;8.584;2023-07-20T10:29:28;24.03;47.92
66522;SHT31;53349;53.538;8.584;2023-07-20T10:31:56;24.05;47.83
66522;SHT31;53349;53.538;8.584;2023-07-20T10:34:22;24.16;47.40
66522;SHT31;53349;53.538;8.584;2023-07-20T10:36:48;24.17;47.82
66522;SHT31;53349;53.538;8.584;2023-07-20T10:39:42;24.28;46.89
66522;SHT31;53349;53.538;8.584;2023-07-20T10:42:09;24.40;46.36
66522;SHT31;53349;53.538;8.584;2023-07-20T10:44:39;24.34;46.82
66522;SHT31;53349;53.538;8.584;2023-07-20T10:47:12;24.47;46.42
66522;SHT31;53349;53.538;8.584;2023-07-20T10:50:13;24.41;46.75
66522;SHT31;53349;53.538;8.584;2023-07-20T10:52:43;24.51;46.77
66522;SHT31;53349;53.538;8.584;2023-07-20T10:55:28;24.53;47.04
66522;SHT31;53349;53.538;8.584;2023-07-20T10:58:18;24.48;46.37
66522;SHT31;53349;53.538;8.584;2023-07-20T11:01:03;24.53;46.25
66522;SHT31;53349;53.538;8.584;2023-07-20T11:03:30;24.43;46.16
66522;SHT31;53349;53.538;8.584;2023-07-20T11:05:57;24.34;46.68
66522;SHT31;53349;53.538;8.584;2023-07-20T11:08:42;24.43;46.19
66522;SHT31;53349;53.538;8.584;2023-07-20T11:11:28;24.46;46.22
66522;SHT31;53349;53.538;8.584;2023-07-20T11:14:02;24.44;46.19
66522;SHT31;53349;53.538;8.584;2023-07-20T11:19:20;24.53;46.49
66522;SHT31;53349;53.538;8.584;2023-07-20T11:22:00;24.53;46.46
66522;SHT31;53349;53.538;8.584;2023-07-20T11:24:29;24.46;46.56
66522;SHT31;53349;53.538;8.584;2023-07-20T11:26:55;24.46;46.47
66522;SHT31;53349;53.538;8.584;2023-07-20T11:29:22;24.44;46.37
66522;SHT31;53349;53.538;8.584;2023-07-20T11:31:48;24.41;46.29
66522;SHT31;53349;53.538;8.584;2023-07-20T11:34:20;24.34;46.29
66522;SHT31;53349;53.538;8.584;2023-07-20T11:36:47;24.27;46.95
66522;SHT31;53349;53.538;8.584;2023-07-20T11:39:14;24.30;46.97
66522;SHT31;53349;53.538;8.584;2023-07-20T11:41:53;24.38;47.19
66522;SHT31;53349;53.538;8.584;2023-07-20T11:44:20;24.30;47.57
66522;SHT31;53349;53.538;8.584;2023-07-20T11:46:46;24.26;47.27
66522;SHT31;53349;53.538;8.584;2023-07-20T11:49:13;24.18;47.61
66522;SHT31;53349;53.538;8.584;2023-07-20T11:51:40;24.16;47.14
66522;SHT31;53349;53.538;8.584;2023-07-20T11:54:07;24.16;47.24
66522;SHT31;53349;53.538;8.584;2023-07-20T11:56:33;24.16;47.20
66522;SHT31;53349;53.538;8.584;2023-07-20T11:58:58;24.03;48.12
66522;SHT31;53349;53.538;8.584;2023-07-20T12:01:26;23.93;48.49
66522;SHT31;53349;53.538;8.584;2023-07-20T12:03:51;23.99;48.57
66522;SHT31;53349;53.538;8.584;2023-07-20T12:06:17;23.96;48.85
66522;SHT31;53349;53.538;8.584;2023-07-20T12:08:43;23.99;48.98
66522;SHT31;53349;53.538;8.584;2023-07-20T12:11:10;24.00;49.29
66522;SHT31;53349;53.538;8.584;2023-07-20T12:13:52;23.93;49.46
66522;SHT31;53349;53.538;8.584;2023-07-20T12:16:27;23.87;49.49
66522;SHT31;53349;53.538;8.584;2023-07-20T12:18:59;23.85;49.02
66522;SHT31;53349;53.538;8.584;2023-07-20T12:21:25;23.70;49.57
66522;SHT31;53349;53.538;8.584;2023-07-20T12:23:50;23.62;49.44
66522;SHT31;53349;53.538;8.584;2023-07-20T12:26:15;23.62;49.22
66522;SHT31;53349;53.538;8.584;2023-07-20T12:28:41;23.52;49.49
66522;SHT31;53349;53.538;8.584;2023-07-20T12:31:09;23.49;49.92
66522;SHT31;53349;53.538;8.584;2023-07-20T12:33:35;23.45;49.89
66522;SHT31;53349;53.538;8.584;2023-07-20T12:36:01;23.37;49.49
66522;SHT31;53349;53.538;8.584;2023-07-20T12:38:29;23.35;49.40
66522;SHT31;53349;53.538;8.584;2023-07-20T12:40:55;23.28;49.53
66522;SHT31;53349;53.538;8.584;2023-07-20T12:43:25;23.27;49.35
66522;SHT31;53349;53.538;8.584;2023-07-20T12:45:53;23.27;49.11
66522;SHT31;53349;53.538;8.584;2023-07-20T12:48:19;23.22;48.69
66522;SHT31;53349;53.538;8.584;2023-07-20T12:50:44;23.12;48.50
66522;SHT31;53349;53.538;8.584;2023-07-20T12:53:10;23.08;48.31
66522;SHT31;53349;53.538;8.584;2023-07-20T12:55:35;23.06;48.34
66522;SHT31;53349;53.538;8.584;2023-07-20T12:58:00;22.94;48.52
66522;SHT31;53349;53.538;8.584;2023-07-20T13:00:27;22.91;48.07
66522;SHT31;53349;53.538;8.584;2023-07-20T13:02:52;22.87;47.88
66522;SHT31;53349;53.538;8.584;2023-07-20T13:05:18;22.78;48.30
66522;SHT31;53349;53.538;8.584;2023-07-20T13:07:43;22.78;48.67
66522;SHT31;53349;53.538;8.584;2023-07-20T13:10:12;22.73;48.91
66522;SHT31;53349;53.538;8.584;2023-07-20T13:12:39;22.69;49.26
66522;SHT31;53349;53.538;8.584;2023-07-20T13:15:08;22.67;49.55
66522;SHT31;53349;53.538;8.584;2023-07-20T13:17:38;22.67;49.64
66522;SHT31;53349;53.538;8.584;2023-07-20T13:20:05;22.57;50.27
66522;SHT31;53349;53.538;8.584;2023-07-20T13:22:31;22.52;50.14
66522;SHT31;53349;53.538;8.584;2023-07-20T13:24:56;22.55;50.37
66522;SHT31;53349;53.538;8.584;2023-07-20T13:27:23;22.49;50.65
66522;SHT31;53349;53.538;8.584;2023-07-20T13:29:52;22.46;51.05
66522;SHT31;53349;53.538;8.584;2023-07-20T13:32:17;22.50;50.93
66522;SHT31;53349;53.538;8.584;2023-07-20T13:34:45;22.56;50.56
66522;SHT31;53349;53.538;8.584;2023-07-20T13:37:12;22.57;50.81
66522;SHT31;53349;53.538;8.584;2023-07-20T13:39:40;22.52;51.06
66522;SHT31;53349;53.538;8.584;2023-07-20T13:42:07;22.49;51.32
66522;SHT31;53349;53.538;8.584;2023-07-20T13:44:32;22.49;51.76
66522;SHT31;53349;53.538;8.584;2023-07-20T13:46:59;22.50;51.36
66522;SHT31;53349;53.538;8.584;2023-07-20T13:49:25;22.49;51.94
66522;SHT31;53349;53.538;8.584;2023-07-20T13:51:50;22.45;51.35
66522;SHT31;53349;53.538;8.584;2023-07-20T13:54:16;22.43;51.90
66522;SHT31;53349;53.538;8.584;2023-07-20T13:56:41;22.36;51.77
66522;SHT31;53349;53.538;8.584;2023-07-20T13:59:07;22.39;51.93
66522;SHT31;53349;53.538;8.584;2023-07-20T14:01:33;22.40;51.93
66522;SHT31;53349;53.538;8.584;2023-07-20T14:03:58;22.42;52.07
66522;SHT31;53349;53.538;8.584;2023-07-20T14:06:24;22.39;52.02
66522;SHT31;53349;53.538;8.584;2023-07-20T14:08:49;22.39;52.89
66522;SHT31;53349;53.538;8.584;2023-07-20T14:11:15;22.36;53.14
66522;SHT31;53349;53.538;8.584;2023-07-20T14:13:42;22.32;52.88
66522;SHT31;53349;53.538;8.584;2023-07-20T14:16:07;22.30;53.03
66522;SHT31;53349;53.538;8.584;2023-07-20T14:18:33;22.29;52.90
66522;SHT31;53349;53.538;8.584;2023-07-20T14:20:58;22.23;53.12
66522;SHT31;53349;53.538;8.584;2023-07-20T14:23:25;22.18;52.90
66522;SHT31;53349;53.538;8.584;2023-07-20T14:25:53;22.16;53.10
66522;SHT31;53349;53.538;8.584;2023-07-20T14:28:18;22.18;53.41
66522;SHT31;53349;53.538;8.584;2023-07-20T14:30:43;22.20;53.51
66522;SHT31;53349;53.538;8.584;2023-07-20T14:33:08;22.15;54.22
66522;SHT31;53349;53.538;8.584;2023-07-20T14:35:34;22.15;53.68
66522;SHT31;53349;53.538;8.584;2023-07-20T14:38:00;22.18;52.92
66522;SHT31;53349;53.538;8.584;2023-07-20T14:40:27;22.20;52.96
66522;SHT31;53349;53.538;8.584;2023-07-20T14:42:53;22.13;52.59
66522;SHT31;53349;53.538;8.584;2023-07-20T14:45:18;22.13;53.05
66522;SHT31;53349;53.538;8.584;2023-07-20T14:47:44;22.15;53.32
66522;SHT31;53349;53.538;8.584;2023-07-20T14:50:09;22.13;52.65
66522;SHT31;53349;53.538;8.584;2023-07-20T14:52:35;22.12;52.36
66522;SHT31;53349;53.538;8.584;2023-07-20T14:55:00;22.08;52.09
66522;SHT31;53349;53.538;8.584;2023-07-20T14:57:28;22.06;51.95
66522;SHT31;53349;53.538;8.584;2023-07-20T14:59:54;22.01;51.78
66522;SHT31;53349;53.538;8.584;2023-07-20T15:02:20;21.95;51.49
66522;SHT31;53349;53.538;8.584;2023-07-20T15:04:49;21.89;51.78
66522;SHT31;53349;53.538;8.584;2023-07-20T15:07:26;21.85;51.13
66522;SHT31;53349;53.538;8.584;2023-07-20T15:09:52;21.81;51.61
66522;SHT31;53349;53.538;8.584;2023-07-20T15:12:17;21.81;50.92
66522;SHT31;53349;53.538;8.584;2023-07-20T15:14:43;21.77;50.65
66522;SHT31;53349;53.538;8.584;2023-07-20T15:17:10;21.78;50.27
66522;SHT31;53349;53.538;8.584;2023-07-20T15:19:35;21.78;50.20
66522;SHT31;53349;53.538;8.584;2023-07-20T15:22:04;21.79;50.80
66522;SHT31;53349;53.538;8.584;2023-07-20T15:24:30;21.79;51.35
66522;SHT31;53349;53.538;8.584;2023-07-20T15:26:55;21.79;51.44
66522;SHT31;53349;53.538;8.584;2023-07-20T15:29:21;21.78;51.83
66522;SHT31;53349;53.538;8.584;2023-07-20T15:31:49;21.78;52.63
66522;SHT31;53349;53.538;8.584;2023-07-20T15:34:20;21.74;52.64
66522;SHT31;53349;53.538;8.584;2023-07-20T15:36:45;21.69;52.64
66522;SHT31;53349;53.538;8.584;2023-07-20T15:39:14;21.68;52.84
66522;SHT31;53349;53.538;8.584;2023-07-20T15:41:40;21.64;52.77
66522;SHT31;53349;53.538;8.584;2023-07-20T15:44:06;21.61;52.24
66522;SHT31;53349;53.538;8.584;2023-07-20T15:49:06;21.54;53.11
66522;SHT31;53349;53.538;8.584;2023-07-20T15:51:36;21.53;52.87